.
WxDataArchive / Data Records for 2009-03-29
2009-03-28 March 2009 2009-03-30

Data Records for Sunday, 29 March 2009

Time	Temp	Chill	HIndex	Humid	Dewpt	 Wind 	HiWind	WindDir	Rain 	Barom 
-----	----	-----	------	-----	-----	------	------	-------	-----	----- 
00:00	42.8	39.8	42.8	95	41.5	5	11	112	0.00	29.352 
00:05	42.8	42.8	42.8	95	41.5	3	11	112	0.00	29.351 
00:10	42.8	42.8	42.8	95	41.5	1	6	68	0.00	29.348 
00:15	42.8	42.8	42.8	95	41.5	1	3	68	0.01	29.347 
00:20	42.6	42.6	42.6	95	41.3	2	5	90	0.00	29.345 
00:25	42.8	42.8	42.8	95	41.5	1	4	68	0.00	29.333 
00:30	42.8	42.8	42.8	95	41.5	1	5	135	0.00	29.326 
00:35	42.6	42.6	42.6	95	41.3	2	7	112	0.00	29.328 
00:40	42.6	42.6	42.6	95	41.3	1	4	112	0.00	29.323 
00:45	42.6	42.6	42.6	95	41.3	2	6	45	0.00	29.316 
00:50	42.6	42.6	42.6	95	41.3	3	6	112	0.00	29.315 
00:55	42.6	42.6	42.6	95	41.3	2	6	90	0.00	29.309 
01:00	42.6	42.6	42.6	95	41.3	2	6	112	0.00	29.302 
01:05	42.6	42.6	42.6	95	41.3	3	9	112	0.00	29.304 
01:10	42.6	40.3	42.6	95	41.3	4	10	112	0.00	29.300 
01:15	42.6	42.6	42.6	95	41.3	3	11	112	0.00	29.305 
01:20	42.8	42.8	42.8	95	41.5	3	9	112	0.00	29.302 
01:25	42.8	42.8	42.8	95	41.5	3	9	112	0.00	29.300 
01:30	42.8	42.8	42.8	95	41.5	2	5	90	0.00	29.299 
01:35	42.9	42.9	42.9	95	41.6	2	7	135	0.00	29.298 
01:40	42.9	42.9	42.9	95	41.6	1	3	112	0.00	29.297 
01:45	42.9	42.9	42.9	95	41.6	0	2	112	0.00	29.295 
01:50	43.1	43.1	43.1	95	41.8	0	2	112	0.00	29.293 
01:55	43.1	43.1	43.1	95	41.8	1	4	112	0.00	29.293 
02:00	43.2	43.2	43.2	95	41.9	1	3	68	0.00	29.286 
02:05	43.1	43.1	43.1	95	41.8	1	5	22	0.00	29.281 
02:10	43.1	43.1	43.1	95	41.8	1	4	45	0.00	29.282 
02:15	43.1	43.1	43.1	95	41.8	3	7	90	0.00	29.283 
02:20	43.1	43.1	43.1	95	41.8	0	2	112	0.00	29.283 
02:25	43.1	43.1	43.1	95	41.8	3	6	112	0.00	29.276 
02:30	43.1	43.1	43.1	95	41.8	2	7	90	0.00	29.268 
02:35	43.1	43.1	43.1	95	41.8	2	6	90	0.00	29.271 
02:40	43.1	43.1	43.1	95	41.8	0	5	90	0.00	29.271 
02:45	42.9	42.9	42.9	95	41.6	2	5	135	0.00	29.283 
02:50	42.9	42.9	42.9	95	41.6	1	3	135	0.00	29.288 
02:55	42.9	42.9	42.9	95	41.6	0	1	112	0.00	29.284 
03:00	42.9	42.9	42.9	95	41.6	0	1	112	0.00	29.285 
03:05	43.1	43.1	43.1	95	41.8	0	1	112	0.00	29.286 
03:10	43.1	43.1	43.1	95	41.8	0	3	248	0.00	29.282 
03:15	43.2	43.2	43.2	95	41.9	0	2	248	0.00	29.279 
03:20	43.3	43.3	43.3	95	42.0	0	2	248	0.00	29.285 
03:25	43.3	43.3	43.3	95	42.0	0	2	248	0.00	29.285 
03:30	43.3	43.3	43.3	95	42.0	2	7	248	0.01	29.285 
03:35	43.5	43.5	43.5	96	42.4	2	7	270	0.00	29.284 
03:40	43.3	41.1	43.3	95	42.0	4	11	248	0.00	29.283 
03:45	42.6	39.5	42.6	95	41.3	5	11	248	0.00	29.285 
03:50	41.9	38.7	41.9	95	40.6	5	13	270	0.00	29.285 
03:55	41.6	38.4	41.6	95	40.3	5	14	248	0.00	29.286 
04:00	41.1	37.8	41.1	94	39.5	5	11	248	0.00	29.289 
04:05	40.1	36.6	40.1	93	38.2	5	14	248	0.00	29.292 
04:10	39.5	35.9	39.5	91	37.1	5	13	270	0.00	29.294 
04:15	39.5	35.2	39.5	87	36.0	6	12	270	0.00	29.294 
04:20	39.6	36.0	39.6	82	34.6	5	11	270	0.00	29.293 
04:25	39.6	36.0	39.6	80	33.9	5	13	270	0.00	29.292 
04:30	39.8	37.1	39.8	80	34.1	4	15	270	0.00	29.294 
04:35	39.8	39.8	39.8	80	34.1	3	6	248	0.00	29.294 
04:40	39.8	35.5	39.8	77	33.2	6	14	270	0.00	29.295 
04:45	39.8	36.2	39.8	77	33.2	5	9	248	0.00	29.294 
04:50	39.6	36.0	39.6	76	32.7	5	13	248	0.00	29.300 
04:55	39.6	36.0	39.6	76	32.7	5	15	270	0.00	29.303 
05:00	39.5	36.7	39.5	76	32.6	4	14	248	0.00	29.304 
05:05	39.2	36.4	39.2	77	32.6	4	14	270	0.00	29.307 
05:10	38.9	38.9	38.9	77	32.3	3	6	248	0.00	29.306 
05:15	38.6	35.7	38.6	77	32.0	4	11	248	0.00	29.307 
05:20	38.5	38.5	38.5	78	32.2	3	7	248	0.00	29.307 
05:25	38.2	35.2	38.2	79	32.3	4	10	248	0.00	29.307 
05:30	38.2	38.2	38.2	79	32.3	3	6	248	0.00	29.307 
05:35	38.0	38.0	38.0	79	32.1	3	9	248	0.00	29.305 
05:40	38.0	38.0	38.0	79	32.1	3	11	248	0.00	29.304 
05:45	38.0	38.0	38.0	80	32.4	1	4	248	0.00	29.302 
05:50	38.0	38.0	38.0	80	32.4	2	7	248	0.00	29.303 
05:55	38.0	38.0	38.0	80	32.4	2	7	225	0.00	29.307 
06:00	38.0	38.0	38.0	79	32.1	3	10	248	0.00	29.308 
06:05	38.2	38.2	38.2	79	32.3	3	9	248	0.00	29.311 
06:10	38.3	38.3	38.3	79	32.4	3	9	248	0.00	29.313 
06:15	38.3	38.3	38.3	78	32.1	3	9	248	0.00	29.315 
06:20	38.5	38.5	38.5	78	32.2	3	9	248	0.00	29.316 
06:25	38.5	38.5	38.5	78	32.2	3	5	248	0.00	29.317 
06:30	38.5	38.5	38.5	78	32.2	3	11	248	0.00	29.320 
06:35	38.6	38.6	38.6	78	32.3	3	7	248	0.00	29.321 
06:40	38.6	38.6	38.6	78	32.3	2	6	248	0.00	29.320 
06:45	38.6	38.6	38.6	78	32.3	3	8	248	0.00	29.321 
06:50	38.6	38.6	38.6	77	32.0	2	6	248	0.00	29.319 
06:55	38.6	38.6	38.6	77	32.0	3	9	248	0.00	29.320 
07:00	38.8	38.8	38.8	77	32.2	2	5	248	0.00	29.321 
07:05	38.8	38.8	38.8	78	32.5	2	6	248	0.00	29.323 
07:10	38.8	38.8	38.8	77	32.2	3	7	248	0.00	29.323 
07:15	38.8	35.9	38.8	78	32.5	4	10	248	0.00	29.325 
07:20	38.8	35.9	38.8	78	32.5	4	10	248	0.00	29.325 
07:25	38.8	38.8	38.8	79	32.9	3	9	248	0.00	29.326 
07:30	38.8	38.8	38.8	81	33.5	3	10	270	0.00	29.325 
07:35	38.6	38.6	38.6	81	33.3	2	6	248	0.00	29.325 
07:40	38.5	38.5	38.5	82	33.5	2	7	248	0.00	29.327 
07:45	38.5	38.5	38.5	84	34.1	2	5	248	0.00	29.328 
07:50	38.5	38.5	38.5	84	34.1	3	11	248	0.00	29.327 
07:55	38.6	38.6	38.6	84	34.2	2	4	248	0.00	29.328 
08:00	38.9	38.9	38.9	84	34.5	2	9	248	0.00	29.327 
08:05	39.1	39.1	39.1	84	34.7	2	5	248	0.00	29.327 
08:10	39.3	39.3	39.3	84	34.9	2	12	248	0.00	29.328 
08:15	39.5	39.5	39.5	82	34.5	2	9	270	0.00	29.328 
08:20	39.6	39.6	39.6	81	34.3	2	5	225	0.00	29.330 
08:25	39.9	39.9	39.9	81	34.6	2	5	248	0.00	29.329 
08:30	40.1	40.1	40.1	80	34.4	2	5	248	0.00	29.330 
08:35	40.3	37.7	40.3	79	34.3	4	9	248	0.00	29.329 
08:40	40.5	37.9	40.5	78	34.2	4	10	248	0.00	29.327 
08:45	40.5	40.5	40.5	78	34.2	3	10	248	0.00	29.327 
08:50	40.6	40.6	40.6	77	34.0	3	10	248	0.00	29.327 
08:55	40.6	38.0	40.6	77	34.0	4	11	248	0.00	29.327 
09:00	40.5	37.9	40.5	78	34.2	4	10	248	0.00	29.331 
09:05	40.3	37.7	40.3	78	34.0	4	9	248	0.00	29.332 
09:10	40.2	40.2	40.2	78	33.9	3	7	248	0.00	29.331 
09:15	40.3	40.3	40.3	78	34.0	3	9	248	0.00	29.330 
09:20	40.5	40.5	40.5	79	34.5	3	9	248	0.00	29.330 
09:25	40.6	40.6	40.6	79	34.6	3	9	248	0.00	29.329 
09:30	40.8	40.8	40.8	80	35.1	2	6	248	0.00	29.328 
09:35	40.9	40.9	40.9	78	34.6	3	9	248	0.00	29.330 
09:40	41.2	41.2	41.2	78	34.9	3	9	248	0.00	29.329 
09:45	41.6	41.6	41.6	78	35.3	2	6	248	0.00	29.326 
09:50	41.8	41.8	41.8	77	35.1	3	9	248	0.00	29.326 
09:55	41.8	38.6	41.8	76	34.8	5	11	248	0.00	29.327 
10:00	41.8	41.8	41.8	77	35.1	3	6	248	0.00	29.326 
10:05	41.9	41.9	41.9	76	34.9	3	7	225	0.00	29.328 
10:10	42.1	42.1	42.1	76	35.1	3	9	248	0.00	29.328 
10:15	42.1	39.7	42.1	74	34.4	4	9	248	0.00	29.330 
10:20	42.2	39.9	42.2	74	34.5	4	10	248	0.00	29.332 
10:25	42.1	38.9	42.1	74	34.4	5	12	248	0.00	29.334 
10:30	42.1	42.1	42.1	75	34.8	3	10	248	0.00	29.333 
10:35	42.2	42.2	42.2	75	34.9	3	9	248	0.00	29.333 
10:40	42.2	39.9	42.2	75	34.9	4	11	248	0.00	29.332 
10:45	42.2	39.1	42.2	75	34.9	5	12	270	0.00	29.338 
10:50	42.1	39.7	42.1	77	35.4	4	10	248	0.00	29.342 
10:55	41.8	39.4	41.8	79	35.8	4	9	248	0.00	29.342 
11:00	41.5	38.2	41.5	79	35.5	5	12	270	0.00	29.346 
11:05	41.3	38.8	41.3	81	35.9	4	11	270	0.00	29.345 
11:10	41.3	38.0	41.3	80	35.6	5	12	270	0.00	29.348 
11:15	41.3	38.8	41.3	80	35.6	4	9	248	0.00	29.347 
11:20	41.5	41.5	41.5	81	36.1	3	11	248	0.00	29.349 
11:25	41.6	41.6	41.6	81	36.2	3	7	248	0.00	29.354 
11:30	41.9	41.9	41.9	81	36.5	3	9	270	0.00	29.355 
11:35	41.9	39.5	41.9	80	36.2	4	10	270	0.00	29.353 
11:40	41.9	38.7	41.9	80	36.2	5	10	270	0.00	29.356 
11:45	41.9	39.5	41.9	79	35.9	4	9	270	0.00	29.357 
11:50	42.3	42.3	42.3	80	36.6	3	8	248	0.00	29.357 
11:55	42.5	40.2	42.5	79	36.5	4	10	270	0.00	29.356 
12:00	42.1	38.9	42.1	79	36.1	5	11	270	0.00	29.359 
12:05	42.2	42.2	42.2	81	36.8	3	9	248	0.00	29.361 
12:10	41.9	38.7	41.9	79	35.9	5	10	248	0.00	29.367 
12:15	41.6	39.2	41.6	80	35.9	4	10	270	0.00	29.370 
12:20	41.6	41.6	41.6	82	36.5	3	6	248	0.00	29.373 
12:25	41.5	39.1	41.5	83	36.7	4	10	248	0.01	29.375 
12:30	41.6	37.7	41.6	82	36.5	6	13	248	0.00	29.373 
12:35	41.6	38.4	41.6	82	36.5	5	10	248	0.00	29.373 
12:40	41.5	38.2	41.5	82	36.4	5	16	248	0.00	29.375 
12:45	40.9	37.5	40.9	82	35.8	5	16	270	0.00	29.380 
12:50	40.6	38.0	40.6	83	35.8	4	11	270	0.00	29.384 
12:55	40.2	36.0	40.2	83	35.5	6	14	270	0.00	29.388 
13:00	39.9	36.4	39.9	84	35.5	5	13	270	0.00	29.391 
13:05	39.9	36.4	39.9	84	35.5	5	11	270	0.00	29.392 
13:10	39.9	37.2	39.9	85	35.8	4	9	270	0.00	29.397 
13:15	39.1	35.4	39.1	84	34.7	5	12	270	0.00	29.404 
13:20	39.1	35.4	39.1	86	35.3	5	10	270	0.00	29.404 
13:25	38.9	36.0	38.9	85	34.8	4	11	270	0.00	29.405 
13:30	39.1	36.3	39.1	86	35.3	4	11	270	0.00	29.407 
13:35	39.2	36.4	39.2	85	35.1	4	7	270	0.00	29.409 
13:40	39.2	36.4	39.2	84	34.8	4	6	270	0.00	29.414 
13:45	39.2	35.5	39.2	84	34.8	5	13	270	0.00	29.418 
13:50	38.8	35.9	38.8	84	34.4	4	17	270	0.00	29.422 
13:55	38.0	34.1	38.0	85	33.9	5	17	270	0.01	29.426 
14:00	37.8	34.8	37.8	86	34.0	4	7	270	0.00	29.432 
14:05	37.3	37.3	37.3	87	33.8	3	6	270	0.00	29.438 
14:10	37.0	32.9	37.0	88	33.8	5	11	270	0.00	29.439 
14:15	37.0	37.0	37.0	88	33.8	3	10	270	0.00	29.441 
14:20	37.2	37.2	37.2	89	34.3	2	7	270	0.00	29.444 
14:25	37.0	33.9	37.0	89	34.1	4	9	270	0.00	29.449 
14:30	37.0	33.9	37.0	88	33.8	4	9	270	0.00	29.455 
14:35	36.9	32.8	36.9	87	33.4	5	10	270	0.00	29.457 
14:40	36.5	33.3	36.5	87	33.0	4	10	270	0.00	29.461 
14:45	36.2	32.0	36.2	87	32.7	5	12	270	0.01	29.471 
14:50	36.2	32.0	36.2	87	32.7	5	10	270	0.00	29.473 
14:55	36.2	32.9	36.2	87	32.7	4	11	292	0.00	29.475 
15:00	35.9	32.6	35.9	86	32.1	4	7	270	0.00	29.480 
15:05	35.8	32.5	35.8	87	32.3	4	9	270	0.00	29.488 
15:10	35.9	32.6	35.9	88	32.7	4	10	270	0.00	29.491 
15:15	35.8	32.5	35.8	87	32.3	4	12	270	0.00	29.495 
15:20	35.6	32.2	35.6	87	32.1	4	11	270	0.00	29.504 
15:25	35.3	31.9	35.3	88	32.1	4	10	270	0.00	29.507 
15:30	35.2	31.8	35.2	88	32.0	4	15	270	0.00	29.507 
15:35	35.3	31.9	35.3	88	32.1	4	7	270	0.00	29.509 
15:40	35.3	31.9	35.3	88	32.1	4	11	270	0.00	29.516 
15:45	35.5	32.1	35.5	88	32.3	4	10	270	0.00	29.523 
15:50	35.5	32.1	35.5	88	32.3	4	10	270	0.00	29.525 
15:55	35.5	31.2	35.5	88	32.3	5	10	270	0.00	29.532 
16:00	35.2	30.8	35.2	88	32.0	5	14	292	0.00	29.539 
16:05	34.9	30.5	34.9	87	31.4	5	10	270	0.00	29.541 
16:10	34.9	30.5	34.9	87	31.4	5	12	270	0.00	29.546 
16:15	34.9	31.4	34.9	87	31.4	4	13	270	0.00	29.552 
16:20	35.0	31.5	35.0	88	31.8	4	11	270	0.00	29.556 
16:25	34.7	30.2	34.7	87	31.2	5	12	270	0.00	29.562 
16:30	34.4	29.9	34.4	87	30.9	5	13	292	0.00	29.570 
16:35	34.3	29.0	34.3	86	30.6	6	13	270	0.00	29.574 
16:40	34.0	28.6	34.0	86	30.3	6	14	270	0.00	29.575 
16:45	34.0	30.4	34.0	87	30.5	4	11	270	0.00	29.582 
16:50	34.0	30.4	34.0	86	30.3	4	11	270	0.00	29.582 
16:55	34.1	28.7	34.1	84	29.8	6	17	270	0.00	29.590 
17:00	34.3	29.8	34.3	83	29.7	5	15	338	0.00	29.591 
17:05	34.4	29.9	34.4	81	29.2	5	10	270	0.00	29.601 
17:10	34.6	34.6	34.6	82	29.7	3	10	270	0.00	29.605 
17:15	34.7	31.2	34.7	82	29.8	4	9	270	0.00	29.613 
17:20	34.7	31.2	34.7	81	29.5	4	13	270	0.00	29.619 
17:25	34.7	34.7	34.7	80	29.2	3	14	315	0.00	29.621 
17:30	34.7	31.2	34.7	80	29.2	4	9	270	0.00	29.622 
17:35	34.7	31.2	34.7	80	29.2	4	10	270	0.00	29.625 
17:40	34.6	30.1	34.6	80	29.1	5	10	270	0.00	29.629 
17:45	34.6	30.1	34.6	80	29.1	5	10	270	0.00	29.637 
17:50	34.7	34.7	34.7	80	29.2	3	6	315	0.00	29.640 
17:55	34.6	30.1	34.6	77	28.1	5	11	270	0.00	29.645 
18:00	34.6	34.6	34.6	77	28.1	3	6	315	0.00	29.651 
18:05	34.6	31.1	34.6	78	28.5	4	10	270	0.00	29.651 
18:10	34.4	30.8	34.4	79	28.6	4	13	270	0.00	29.660 
18:15	34.3	29.0	34.3	78	28.2	6	13	270	0.00	29.662 
18:20	34.3	29.0	34.3	77	27.9	6	14	270	0.00	29.669 
18:25	34.1	29.5	34.1	77	27.7	5	11	270	0.00	29.675 
18:30	34.1	29.5	34.1	77	27.7	5	12	270	0.00	29.682 
18:35	34.1	30.5	34.1	77	27.7	4	12	270	0.00	29.684 
18:40	34.3	30.7	34.3	76	27.5	4	11	315	0.00	29.687 
18:45	34.3	30.7	34.3	76	27.5	4	10	270	0.00	29.700 
18:50	34.3	34.3	34.3	75	27.2	3	10	270	0.00	29.701 
18:55	34.4	30.8	34.4	75	27.3	4	10	270	0.00	29.700 
19:00	34.4	30.8	34.4	75	27.3	4	7	270	0.00	29.703 
19:05	34.6	30.1	34.6	75	27.5	5	13	270	0.00	29.715 
19:10	34.6	31.1	34.6	75	27.5	4	14	270	0.00	29.712 
19:15	34.6	31.1	34.6	76	27.8	4	9	270	0.00	29.714 
19:20	34.6	31.1	34.6	76	27.8	4	9	270	0.00	29.716 
19:25	34.7	31.2	34.7	76	27.9	4	9	270	0.00	29.717 
19:30	34.7	34.7	34.7	76	27.9	3	6	292	0.00	29.720 
19:35	34.7	34.7	34.7	75	27.6	3	8	270	0.00	29.726 
19:40	34.7	31.2	34.7	72	26.6	4	8	270	0.00	29.729 
19:45	34.7	31.2	34.7	75	27.6	4	8	270	0.00	29.730 
19:50	34.7	30.2	34.7	75	27.6	5	10	270	0.00	29.733 
19:55	34.9	34.9	34.9	75	27.8	3	9	270	0.00	29.737 
20:00	34.9	34.9	34.9	75	27.8	3	7	270	0.00	29.745 
20:05	34.9	34.9	34.9	75	27.8	3	6	270	0.00	29.745 
20:10	34.9	31.4	34.9	75	27.8	4	6	270	0.00	29.749 
20:15	34.9	34.9	34.9	75	27.8	3	5	270	0.00	29.758 
20:20	34.9	31.4	34.9	75	27.8	4	7	270	0.00	29.759 
20:25	35.0	35.0	35.0	76	28.2	3	7	270	0.00	29.761 
20:30	35.0	35.0	35.0	76	28.2	3	6	270	0.00	29.765 
20:35	35.0	35.0	35.0	76	28.2	3	6	270	0.00	29.767 
20:40	35.0	35.0	35.0	76	28.2	3	6	270	0.00	29.770 
20:45	35.2	35.2	35.2	76	28.4	3	6	270	0.00	29.775 
20:50	35.2	31.8	35.2	76	28.4	4	9	270	0.00	29.776 
20:55	35.2	35.2	35.2	77	28.7	3	6	270	0.00	29.778 
21:00	35.2	35.2	35.2	77	28.7	3	5	270	0.00	29.783 
21:05	35.3	35.3	35.3	77	28.8	3	6	270	0.00	29.787 
21:10	35.3	35.3	35.3	77	28.8	3	6	270	0.00	29.785 
21:15	35.5	35.5	35.5	77	29.0	2	6	270	0.00	29.787 
21:20	35.5	32.1	35.5	76	28.7	4	11	270	0.00	29.789 
21:25	35.5	35.5	35.5	76	28.7	3	6	270	0.00	29.790 
21:30	35.6	35.6	35.6	76	28.8	2	5	248	0.00	29.794 
21:35	35.6	35.6	35.6	77	29.1	2	3	248	0.00	29.798 
21:40	35.6	35.6	35.6	76	28.8	3	5	270	0.00	29.801 
21:45	35.6	35.6	35.6	75	28.5	2	6	270	0.00	29.802 
21:50	35.8	35.8	35.8	75	28.7	3	6	270	0.00	29.803 
21:55	35.9	35.9	35.9	75	28.8	3	5	292	0.00	29.805 
22:00	35.9	35.9	35.9	75	28.8	3	5	270	0.00	29.807 
22:05	35.9	35.9	35.9	75	28.8	2	5	270	0.00	29.809 
22:10	35.9	35.9	35.9	75	28.8	2	4	270	0.00	29.810 
22:15	35.8	35.8	35.8	76	29.0	3	6	270	0.00	29.813 
22:20	35.8	35.8	35.8	76	29.0	2	4	248	0.00	29.816 
22:25	35.8	35.8	35.8	76	29.0	3	9	248	0.00	29.819 
22:30	35.8	35.8	35.8	76	29.0	3	9	248	0.00	29.823 
22:35	35.9	35.9	35.9	76	29.1	2	7	270	0.00	29.823 
22:40	35.9	35.9	35.9	77	29.4	2	5	248	0.00	29.825 
22:45	35.8	35.8	35.8	77	29.3	2	8	248	0.00	29.827 
22:50	35.8	35.8	35.8	77	29.3	2	6	248	0.00	29.828 
22:55	35.8	35.8	35.8	77	29.3	2	4	248	0.00	29.830 
23:00	35.6	35.6	35.6	77	29.1	1	3	248	0.00	29.834 
23:05	35.3	35.3	35.3	78	29.1	1	3	248	0.00	29.835 
23:10	35.2	35.2	35.2	78	29.0	2	7	248	0.00	29.838 
23:15	35.0	35.0	35.0	78	28.8	2	5	248	0.00	29.838 
23:20	34.9	34.9	34.9	79	29.1	1	5	248	0.00	29.841 
23:25	34.9	34.9	34.9	79	29.1	2	5	248	0.00	29.844 
23:30	34.9	34.9	34.9	80	29.4	1	4	270	0.00	29.848 
23:35	34.7	34.7	34.7	80	29.2	2	5	248	0.00	29.852 
23:40	34.7	34.7	34.7	80	29.2	1	5	248	0.00	29.853 
23:45	34.6	34.6	34.6	81	29.4	1	4	248	0.00	29.853 
23:50	34.6	34.6	34.6	81	29.4	1	5	248	0.00	29.854 
23:55	34.6	34.6	34.6	80	29.1	1	5	270	0.00	29.854 

CoCoRaHS
IN-AL-39
A2 Web Hosting
Creative Commons License
GoDaddy
search engine by freefind advanced

loaded 2018-11-19 19:47:14 • last modified 2010-11-18 10:43:29
Privacy PolicyDisclaimer
• wx.awcolley.com is powered by PmWiki v.2002016 •
• all content (unless otherwise noted) © 2018 A W Colley